createdAt,value
2023-01-27T00:01:46.914Z,90.65
2023-01-27T00:04:32.208Z,90.61
2023-01-27T00:07:17.768Z,90.35
2023-01-27T00:10:03.151Z,90.39
2023-01-27T00:13:07.647Z,90.37
2023-01-27T00:15:53.337Z,90.40
2023-01-27T00:18:38.398Z,90.39
2023-01-27T00:21:42.468Z,90.69
2023-01-27T00:24:36.980Z,90.87
2023-01-27T00:27:22.745Z,90.70
2023-01-27T00:30:09.153Z,90.43
2023-01-27T00:33:13.265Z,90.35
2023-01-27T00:35:59.529Z,90.56
2023-01-27T00:38:44.587Z,90.35
2023-01-27T00:41:30.787Z,90.45
2023-01-27T00:44:16.308Z,90.21
2023-01-27T00:47:01.639Z,90.21
2023-01-27T00:49:46.939Z,89.71
2023-01-27T00:52:32.086Z,89.74
2023-01-27T00:55:18.281Z,89.70
2023-01-27T00:58:04.425Z,89.64
2023-01-27T01:00:49.852Z,90.32
2023-01-27T01:03:36.421Z,90.38
2023-01-27T01:06:21.662Z,90.94
2023-01-27T01:09:10.531Z,91.15
2023-01-27T01:11:56.280Z,91.35
2023-01-27T01:14:41.615Z,91.50
2023-01-27T01:17:26.971Z,91.32
2023-01-27T01:20:13.015Z,91.83
2023-01-27T01:22:58.423Z,91.95
2023-01-27T01:25:43.619Z,92.14
2023-01-27T01:28:28.899Z,92.69
2023-01-27T01:31:19.229Z,92.93
2023-01-27T01:34:04.902Z,91.96
2023-01-27T01:36:50.312Z,91.21
2023-01-27T01:39:35.625Z,90.81
2023-01-27T01:42:21.034Z,90.00
2023-01-27T01:45:31.462Z,89.75
2023-01-27T01:48:36.906Z,89.72
2023-01-27T01:51:26.992Z,89.21
2023-01-27T01:54:19.619Z,88.32
2023-01-27T01:57:05.104Z,88.32
2023-01-27T01:59:53.895Z,87.91
2023-01-27T02:02:40.162Z,86.83
2023-01-27T02:05:31.094Z,86.21
2023-01-27T02:08:40.165Z,85.99
2023-01-27T02:11:25.500Z,85.36
2023-01-27T02:14:13.251Z,85.42
2023-01-27T02:16:58.587Z,85.26
2023-01-27T02:20:34.872Z,85.22
2023-01-27T02:23:38.339Z,84.33
2023-01-27T02:26:34.050Z,83.74
2023-01-27T02:29:19.139Z,84.31
2023-01-27T02:32:04.590Z,83.65
2023-01-27T02:34:50.162Z,83.91
2023-01-27T02:37:36.027Z,83.59
2023-01-27T02:40:21.724Z,82.99
2023-01-27T02:43:06.791Z,82.48
2023-01-27T02:45:52.344Z,82.50
2023-01-27T02:48:37.459Z,82.08
2023-01-27T02:51:24.281Z,81.84
2023-01-27T02:54:09.411Z,81.70
2023-01-27T02:56:54.780Z,81.72
2023-01-27T02:59:40.004Z,81.68
2023-01-27T03:02:30.521Z,81.75
2023-01-27T03:05:16.168Z,82.35
2023-01-27T03:08:01.678Z,82.24
2023-01-27T03:10:51.964Z,82.45
2023-01-27T03:13:37.609Z,82.64
2023-01-27T03:16:41.405Z,82.69
2023-01-27T03:19:29.529Z,83.10
2023-01-27T03:22:15.116Z,83.51
2023-01-27T03:25:00.566Z,83.64
2023-01-27T03:27:46.604Z,84.06
2023-01-27T03:30:31.817Z,83.93
2023-01-27T03:33:17.137Z,84.02
2023-01-27T03:36:21.578Z,84.10
2023-01-27T03:39:25.655Z,84.53
2023-01-27T03:42:29.307Z,84.60
2023-01-27T03:45:33.463Z,84.44
2023-01-27T03:48:20.965Z,84.52
2023-01-27T03:51:08.015Z,84.49
2023-01-27T03:53:53.550Z,84.79
2023-01-27T03:56:38.795Z,84.92
2023-01-27T03:59:24.171Z,84.67
2023-01-27T04:02:28.235Z,84.92
2023-01-27T04:05:32.283Z,84.84
2023-01-27T04:08:17.651Z,84.66
2023-01-27T04:11:22.507Z,84.39
2023-01-27T04:14:08.679Z,84.60
2023-01-27T04:16:56.290Z,85.03
2023-01-27T04:19:41.835Z,84.78
2023-01-27T04:22:27.305Z,84.82
2023-01-27T04:25:13.491Z,84.97
2023-01-27T04:27:59.010Z,84.08
2023-01-27T04:30:44.365Z,84.32
2023-01-27T04:33:29.942Z,84.19
2023-01-27T04:36:15.714Z,83.20
2023-01-27T04:39:00.852Z,83.56
2023-01-27T04:41:46.731Z,83.27
2023-01-27T04:44:31.729Z,83.29
2023-01-27T04:47:17.104Z,83.29
2023-01-27T04:50:02.382Z,82.96
2023-01-27T04:52:47.667Z,82.99
2023-01-27T04:55:33.096Z,83.43
2023-01-27T04:58:18.369Z,83.16
2023-01-27T05:01:04.081Z,82.79
2023-01-27T05:03:49.582Z,83.19
2023-01-27T05:06:34.939Z,83.19
2023-01-27T05:09:20.268Z,83.35
2023-01-27T05:12:05.879Z,83.33
2023-01-27T05:14:51.236Z,83.73
2023-01-27T05:17:36.505Z,83.86
2023-01-27T05:20:21.900Z,83.96
2023-01-27T05:23:26.123Z,84.62
2023-01-27T05:26:17.492Z,84.19
2023-01-27T05:29:02.860Z,83.90
2023-01-27T05:31:48.112Z,83.46
2023-01-27T05:34:33.428Z,83.92
2023-01-27T05:37:18.632Z,83.41
2023-01-27T05:40:04.489Z,83.35
2023-01-27T05:42:51.987Z,82.99
2023-01-27T05:45:37.446Z,82.74
2023-01-27T05:48:22.724Z,82.82
2023-01-27T05:51:08.544Z,82.84
2023-01-27T05:53:55.011Z,82.41
2023-01-27T05:56:40.869Z,82.18
2023-01-27T05:59:26.560Z,82.58
2023-01-27T06:02:12.205Z,81.95
2023-01-27T06:04:57.199Z,81.82
2023-01-27T06:07:43.261Z,81.44
2023-01-27T06:10:28.763Z,80.88
2023-01-27T06:13:14.608Z,80.86
2023-01-27T06:16:02.376Z,81.04
2023-01-27T06:18:48.414Z,81.37
2023-01-27T06:21:33.735Z,81.74
2023-01-27T06:24:19.465Z,81.46
2023-01-27T06:27:04.946Z,81.28
2023-01-27T06:29:51.116Z,80.69
2023-01-27T06:32:37.452Z,80.40
2023-01-27T06:35:23.404Z,80.42
2023-01-27T06:38:12.601Z,80.89
2023-01-27T06:40:58.660Z,79.84
2023-01-27T06:43:44.287Z,80.64
2023-01-27T06:46:30.160Z,81.85
2023-01-27T06:49:15.619Z,81.81
2023-01-27T06:52:01.262Z,82.08
2023-01-27T06:54:46.991Z,82.26
2023-01-27T06:57:32.946Z,82.31
2023-01-27T07:00:19.242Z,82.50
2023-01-27T07:03:06.854Z,82.86
2023-01-27T07:05:53.805Z,82.85
2023-01-27T07:08:40.131Z,82.89
2023-01-27T07:11:26.915Z,83.05
2023-01-27T07:14:17.422Z,83.22
2023-01-27T07:17:08.731Z,83.44
2023-01-27T07:19:55.190Z,83.24
2023-01-27T07:22:40.518Z,83.39
2023-01-27T07:25:29.210Z,83.62
2023-01-27T07:28:15.055Z,83.87
2023-01-27T07:31:02.272Z,83.32
2023-01-27T07:33:48.316Z,83.82
2023-01-27T07:36:33.742Z,83.83
2023-01-27T07:39:19.125Z,83.33
2023-01-27T07:42:05.455Z,83.37
2023-01-27T07:44:51.778Z,83.00
2023-01-27T07:47:37.618Z,83.05
2023-01-27T07:50:23.658Z,82.50
2023-01-27T07:53:11.180Z,81.91
2023-01-27T07:55:59.812Z,81.12
2023-01-27T07:58:45.578Z,81.25
2023-01-27T08:01:37.845Z,80.41
2023-01-27T08:04:24.600Z,80.13
2023-01-27T08:07:09.533Z,79.50
2023-01-27T08:10:01.548Z,78.74
2023-01-27T08:12:47.672Z,78.71
2023-01-27T08:15:33.223Z,78.69
2023-01-27T08:18:18.206Z,78.78
2023-01-27T08:21:05.750Z,77.92
2023-01-27T08:23:53.360Z,77.49
2023-01-27T08:26:39.113Z,77.48
2023-01-27T08:29:24.989Z,76.97
2023-01-27T08:32:15.275Z,77.25
2023-01-27T08:35:00.564Z,76.81
2023-01-27T08:37:51.983Z,76.34
2023-01-27T08:40:38.980Z,76.44
2023-01-27T08:43:24.570Z,76.10
2023-01-27T08:46:10.710Z,75.45
2023-01-27T08:48:56.553Z,75.80
2023-01-27T08:51:43.852Z,74.77
2023-01-27T08:54:29.107Z,75.12
2023-01-27T08:57:14.858Z,75.33
2023-01-27T09:00:01.170Z,75.67
2023-01-27T09:02:47.881Z,75.21
2023-01-27T09:05:35.915Z,75.06
2023-01-27T09:08:21.128Z,74.83
2023-01-27T09:11:16.576Z,74.53
2023-01-27T09:14:03.437Z,74.34
2023-01-27T09:16:50.066Z,74.21
2023-01-27T09:19:37.638Z,73.87
2023-01-27T09:22:22.938Z,74.31
2023-01-27T09:25:11.397Z,73.71
2023-01-27T09:27:58.581Z,73.75
2023-01-27T09:30:46.429Z,73.83
2023-01-27T09:33:32.739Z,74.04
2023-01-27T09:36:20.265Z,74.09
2023-01-27T09:41:15.374Z,72.86
2023-01-27T09:44:04.068Z,72.86
2023-01-27T09:47:08.199Z,75.18
2023-01-27T09:50:19.087Z,75.20
2023-01-27T09:53:15.925Z,74.93
2023-01-27T09:56:13.771Z,74.22
2023-01-27T09:59:30.400Z,73.65
2023-01-27T10:02:46.926Z,73.19
2023-01-27T10:05:36.001Z,72.21
2023-01-27T10:08:30.407Z,71.75
2023-01-27T10:11:26.228Z,69.31
2023-01-27T10:14:20.665Z,69.94
2023-01-27T10:17:25.755Z,69.84
2023-01-27T10:20:18.418Z,68.99
2023-01-27T10:23:25.573Z,69.94
2023-01-27T10:26:31.824Z,69.43
2023-01-27T10:29:55.897Z,69.79
2023-01-27T10:33:03.224Z,67.91
2023-01-27T10:35:59.828Z,67.47
2023-01-27T10:39:03.910Z,67.49
2023-01-27T10:41:55.552Z,67.40
2023-01-27T10:44:55.915Z,67.62
2023-01-27T10:48:06.403Z,67.74
2023-01-27T10:51:05.259Z,68.33
2023-01-27T10:54:01.093Z,69.61
2023-01-27T10:57:09.865Z,70.05
2023-01-27T11:03:28.392Z,70.95
2023-01-27T11:06:22.615Z,71.37
2023-01-27T11:09:12.946Z,71.26
2023-01-27T11:12:02.897Z,71.12
2023-01-27T11:14:50.113Z,72.13
2023-01-27T11:17:39.306Z,71.66
2023-01-27T11:20:31.248Z,71.52
2023-01-27T11:23:18.281Z,70.87
2023-01-27T11:26:16.412Z,70.52
2023-01-27T11:29:13.857Z,70.14
